createdAt,value
2022-11-06T00:01:24.972Z,2.75
2022-11-06T00:03:53.283Z,2.40
2022-11-06T00:06:39.106Z,2.10
2022-11-06T00:09:09.232Z,2.65
2022-11-06T00:11:36.309Z,2.53
2022-11-06T00:14:03.826Z,2.72
2022-11-06T00:16:30.824Z,2.15
2022-11-06T00:19:01.368Z,2.08
2022-11-06T00:21:30.620Z,2.20
2022-11-06T00:23:59.963Z,1.80
2022-11-06T00:26:29.668Z,1.92
2022-11-06T00:28:57.128Z,2.35
2022-11-06T00:31:29.921Z,2.60
2022-11-06T00:33:59.169Z,2.05
2022-11-06T00:36:27.740Z,1.77
2022-11-06T00:38:55.416Z,1.83
2022-11-06T00:41:23.476Z,1.98
2022-11-06T00:43:56.693Z,2.17
2022-11-06T00:46:23.599Z,2.20
2022-11-06T00:48:50.767Z,1.90
2022-11-06T00:51:20.882Z,2.22
2022-11-06T00:53:48.282Z,1.90
2022-11-06T00:56:19.745Z,1.60
2022-11-06T00:58:47.652Z,2.33
2022-11-06T01:01:18.490Z,2.05
2022-11-06T01:03:48.157Z,2.17
2022-11-06T01:06:20.884Z,2.13
2022-11-06T01:08:50.055Z,2.20
2022-11-06T01:11:24.025Z,1.52
2022-11-06T01:13:55.494Z,1.90
2022-11-06T01:16:23.879Z,1.70
2022-11-06T01:18:51.941Z,2.40
2022-11-06T01:21:29.848Z,2.83
2022-11-06T01:24:07.981Z,1.90
2022-11-06T01:26:39.344Z,1.90
2022-11-06T01:29:16.146Z,2.10
2022-11-06T01:31:43.228Z,1.70
2022-11-06T01:34:12.057Z,2.25
2022-11-06T01:36:39.684Z,2.00
2022-11-06T01:39:09.294Z,1.70
2022-11-06T01:41:46.026Z,2.35
2022-11-06T01:44:31.651Z,3.08
2022-11-06T01:46:59.648Z,2.00
2022-11-06T01:49:28.797Z,2.20
2022-11-06T01:52:02.075Z,1.90
2022-11-06T01:54:31.085Z,2.22
2022-11-06T01:57:00.224Z,2.30
2022-11-06T01:59:32.266Z,2.03
2022-11-06T02:01:59.202Z,2.45
2022-11-06T02:04:33.007Z,2.20
2022-11-06T02:07:01.033Z,1.70
2022-11-06T02:09:30.391Z,2.25
2022-11-06T02:12:16.647Z,2.05
2022-11-06T02:14:54.568Z,2.15
2022-11-06T02:17:46.491Z,2.13
2022-11-06T02:20:29.522Z,2.58
2022-11-06T02:23:52.905Z,2.20
2022-11-06T02:27:00.434Z,2.40
2022-11-06T02:29:46.478Z,2.65
2022-11-06T02:32:23.231Z,2.20
2022-11-06T02:34:53.421Z,2.63
2022-11-06T02:37:30.114Z,2.42
2022-11-06T02:40:00.710Z,2.40
2022-11-06T02:42:29.645Z,2.28
2022-11-06T02:44:58.089Z,2.25
2022-11-06T02:47:28.874Z,2.20
2022-11-06T02:50:07.607Z,2.33
2022-11-06T02:52:43.057Z,2.15
2022-11-06T02:55:24.489Z,2.90
2022-11-06T02:57:58.623Z,2.63
2022-11-06T03:00:27.836Z,2.67
2022-11-06T03:03:01.843Z,2.13
2022-11-06T03:06:06.039Z,2.75
2022-11-06T03:08:52.466Z,2.28
2022-11-06T03:11:24.046Z,2.85
2022-11-06T03:14:13.665Z,2.47
2022-11-06T03:16:59.611Z,2.63
2022-11-06T03:19:56.083Z,2.30
2022-11-06T03:22:28.696Z,2.53
2022-11-06T03:25:05.524Z,3.42
2022-11-06T03:28:14.341Z,2.80
2022-11-06T03:30:49.929Z,2.80
2022-11-06T03:33:35.027Z,2.95
2022-11-06T03:36:15.728Z,3.50
2022-11-06T03:38:56.178Z,3.20
2022-11-06T03:41:31.410Z,2.90
2022-11-06T03:44:01.209Z,2.30
2022-11-06T03:46:29.784Z,3.33
2022-11-06T03:49:02.353Z,3.08
2022-11-06T03:51:40.361Z,3.53
2022-11-06T03:54:39.386Z,2.97
2022-11-06T03:57:14.967Z,2.28
2022-11-06T03:59:51.486Z,2.67
2022-11-06T04:02:22.747Z,2.83
2022-11-06T04:04:56.502Z,3.08
2022-11-06T04:07:30.362Z,3.20
2022-11-06T04:10:20.779Z,3.75
2022-11-06T04:13:08.229Z,2.83
2022-11-06T04:15:42.103Z,3.03
2022-11-06T04:18:14.290Z,3.20
2022-11-06T04:21:13.030Z,3.20
2022-11-06T04:24:36.566Z,3.67
2022-11-06T04:27:38.639Z,3.05
2022-11-06T04:30:14.843Z,3.15
2022-11-06T04:33:05.732Z,3.25
2022-11-06T04:35:47.331Z,3.55
2022-11-06T04:38:46.656Z,3.15
2022-11-06T04:42:01.426Z,3.03
2022-11-06T04:44:47.991Z,3.58
2022-11-06T04:47:21.610Z,4.57
2022-11-06T04:49:50.961Z,3.58
2022-11-06T04:52:22.653Z,2.90
2022-11-06T04:54:50.271Z,2.60
2022-11-06T04:57:17.098Z,3.47
2022-11-06T04:59:43.884Z,2.78
2022-11-06T05:02:11.657Z,3.00
2022-11-06T05:04:38.517Z,3.67
2022-11-06T05:07:05.336Z,3.30
2022-11-06T05:09:32.238Z,3.00
2022-11-06T05:11:59.019Z,3.17
2022-11-06T05:14:25.801Z,3.42
2022-11-06T05:16:52.583Z,3.10
2022-11-06T05:19:19.382Z,3.15
2022-11-06T05:22:04.555Z,2.80
2022-11-06T05:24:31.317Z,2.78
2022-11-06T05:26:59.593Z,3.03
2022-11-06T05:29:27.328Z,2.92
2022-11-06T05:31:54.188Z,2.50
2022-11-06T05:34:21.479Z,3.05
2022-11-06T05:36:48.297Z,3.30
2022-11-06T05:39:15.087Z,2.80
2022-11-06T05:41:41.907Z,2.95
2022-11-06T05:44:08.874Z,2.72
2022-11-06T05:46:48.799Z,3.08
2022-11-06T05:49:18.167Z,3.00
2022-11-06T05:51:45.090Z,3.10
2022-11-06T05:54:11.895Z,2.83
2022-11-06T05:56:38.670Z,3.13
2022-11-06T05:59:05.588Z,2.67
2022-11-06T06:01:32.470Z,2.38
2022-11-06T06:03:59.543Z,2.90
2022-11-06T06:06:26.598Z,3.17
2022-11-06T06:08:53.412Z,3.20
2022-11-06T06:11:20.293Z,3.10
2022-11-06T06:13:48.338Z,2.80
2022-11-06T06:16:15.892Z,3.22
2022-11-06T06:18:42.689Z,3.28
2022-11-06T06:21:09.450Z,3.25
2022-11-06T06:23:36.219Z,3.17
2022-11-06T06:26:03.027Z,3.28
2022-11-06T06:28:29.799Z,3.45
2022-11-06T06:31:01.304Z,3.75
2022-11-06T06:33:28.770Z,3.40
2022-11-06T06:35:55.539Z,3.17
2022-11-06T06:38:22.601Z,3.47
2022-11-06T06:40:49.441Z,2.92
2022-11-06T06:43:16.207Z,3.47
2022-11-06T06:45:43.103Z,3.17
2022-11-06T06:48:10.043Z,3.00
2022-11-06T06:50:36.959Z,3.25
2022-11-06T06:53:03.881Z,3.50
2022-11-06T06:55:30.702Z,3.78
2022-11-06T06:58:01.715Z,3.35
2022-11-06T07:00:29.356Z,3.88
2022-11-06T07:02:56.331Z,4.00
2022-11-06T07:05:23.443Z,4.00
2022-11-06T07:07:50.380Z,4.07
2022-11-06T07:10:17.344Z,4.47
2022-11-06T07:12:44.226Z,4.20
2022-11-06T07:15:11.482Z,3.78
2022-11-06T07:17:38.254Z,4.38
2022-11-06T07:20:06.027Z,4.10
2022-11-06T07:22:37.474Z,4.22
2022-11-06T07:25:05.961Z,5.30
2022-11-06T07:27:33.465Z,4.63
2022-11-06T07:30:00.586Z,4.57
2022-11-06T07:32:27.909Z,5.25
2022-11-06T07:34:54.736Z,5.15
2022-11-06T07:37:21.869Z,5.25
2022-11-06T07:39:48.696Z,5.05
2022-11-06T07:42:15.510Z,4.68
2022-11-06T07:44:42.286Z,5.38
2022-11-06T07:47:09.076Z,4.68
2022-11-06T07:49:35.861Z,4.72
2022-11-06T07:52:03.053Z,5.13
2022-11-06T07:54:29.870Z,4.25
2022-11-06T07:56:56.935Z,4.68
2022-11-06T07:59:23.720Z,4.63
2022-11-06T08:01:50.613Z,4.45
2022-11-06T08:04:17.504Z,4.50
2022-11-06T08:06:44.264Z,4.68
2022-11-06T08:09:11.071Z,4.22
2022-11-06T08:11:37.840Z,4.22
2022-11-06T08:14:04.673Z,4.38
2022-11-06T08:16:31.560Z,4.35
2022-11-06T08:18:58.333Z,4.78
2022-11-06T08:21:25.223Z,4.47
2022-11-06T08:23:52.058Z,4.75
2022-11-06T08:26:19.340Z,4.47
2022-11-06T08:28:46.192Z,4.30
2022-11-06T08:31:14.920Z,4.22
2022-11-06T08:33:41.774Z,4.07
2022-11-06T08:36:09.986Z,4.38
2022-11-06T08:38:36.891Z,3.88
2022-11-06T08:41:08.712Z,4.20
2022-11-06T08:43:35.972Z,4.38
2022-11-06T08:46:04.592Z,5.22
2022-11-06T08:48:33.047Z,4.25
2022-11-06T08:50:59.962Z,4.47
2022-11-06T08:53:26.799Z,3.95
2022-11-06T08:55:53.621Z,4.68
2022-11-06T08:58:20.463Z,4.15
2022-11-06T09:00:47.333Z,4.00
2022-11-06T09:03:17.994Z,3.88
2022-11-06T09:05:45.809Z,3.60
2022-11-06T09:08:14.276Z,4.00
2022-11-06T09:10:42.756Z,3.50
2022-11-06T09:13:11.060Z,3.55
2022-11-06T09:15:38.355Z,4.00
2022-11-06T09:18:05.549Z,3.65
2022-11-06T09:20:32.425Z,3.97
2022-11-06T09:23:05.281Z,3.85
2022-11-06T09:25:32.886Z,3.92
2022-11-06T09:28:00.939Z,3.70
2022-11-06T09:30:30.885Z,3.90
2022-11-06T09:33:01.841Z,3.45
2022-11-06T09:35:31.876Z,3.45
2022-11-06T09:38:08.045Z,3.50
2022-11-06T09:40:52.583Z,3.65
2022-11-06T09:44:04.736Z,3.95
2022-11-06T09:46:44.430Z,3.33
2022-11-06T09:49:36.446Z,3.20
2022-11-06T09:52:18.921Z,3.53
2022-11-06T09:54:59.960Z,3.22
2022-11-06T09:57:47.341Z,2.90
2022-11-06T10:00:17.079Z,2.95
2022-11-06T10:02:52.041Z,3.55
2022-11-06T10:05:21.634Z,3.35
2022-11-06T10:07:54.180Z,2.80
2022-11-06T10:10:29.290Z,2.72
2022-11-06T10:13:07.605Z,2.70
2022-11-06T10:15:44.455Z,2.70
2022-11-06T10:18:53.982Z,2.55
2022-11-06T10:21:25.160Z,2.53
2022-11-06T10:23:59.215Z,2.35
2022-11-06T10:26:51.792Z,2.67
2022-11-06T10:29:50.488Z,2.53
2022-11-06T10:32:32.351Z,2.40
2022-11-06T10:35:08.577Z,2.08
2022-11-06T10:37:54.899Z,2.20
2022-11-06T10:40:28.777Z,2.38
2022-11-06T10:43:07.080Z,2.17
2022-11-06T10:45:34.866Z,2.28
2022-11-06T10:48:19.256Z,2.05
2022-11-06T10:51:05.284Z,2.13
2022-11-06T10:54:21.333Z,2.15
2022-11-06T10:57:23.580Z,2.38
2022-11-06T10:59:50.931Z,2.10
2022-11-06T11:02:29.643Z,2.08
2022-11-06T11:04:58.270Z,2.47
2022-11-06T11:07:31.773Z,2.10
2022-11-06T11:09:58.737Z,2.35
2022-11-06T11:12:32.808Z,2.42
2022-11-06T11:15:18.324Z,2.22
2022-11-06T11:18:22.366Z,1.90
2022-11-06T11:21:01.522Z,2.10
2022-11-06T11:23:28.418Z,1.70
2022-11-06T11:25:58.425Z,2.10
2022-11-06T11:28:35.152Z,2.00
2022-11-06T11:31:11.742Z,2.63
2022-11-06T11:33:41.861Z,1.80
2022-11-06T11:36:10.205Z,1.98
2022-11-06T11:38:40.033Z,1.65
2022-11-06T11:41:19.102Z,2.03
2022-11-06T11:44:04.136Z,1.60
2022-11-06T11:46:32.685Z,1.77
2022-11-06T11:49:00.198Z,1.85
2022-11-06T11:51:37.028Z,1.65
2022-11-06T11:54:26.708Z,1.88
2022-11-06T11:57:07.579Z,1.98
2022-11-06T12:00:00.192Z,1.70
2022-11-06T12:02:51.277Z,1.45
2022-11-06T12:05:37.501Z,1.20
2022-11-06T12:08:06.521Z,1.58
2022-11-06T12:10:39.068Z,1.50
2022-11-06T12:13:15.137Z,1.45
2022-11-06T12:16:00.329Z,1.73
2022-11-06T12:18:42.517Z,1.70
2022-11-06T12:21:20.226Z,1.50
2022-11-06T12:24:12.866Z,1.48
2022-11-06T12:26:58.129Z,1.20
2022-11-06T12:29:41.189Z,2.10
2022-11-06T12:32:38.574Z,1.33
2022-11-06T12:35:38.204Z,1.27
2022-11-06T12:38:33.123Z,1.30
2022-11-06T12:41:25.420Z,1.27
2022-11-06T12:43:53.103Z,1.58
2022-11-06T12:46:24.685Z,1.60
2022-11-06T12:50:01.358Z,1.70
2022-11-06T12:53:10.753Z,1.35
2022-11-06T12:56:10.854Z,1.48
2022-11-06T12:59:09.928Z,1.48
2022-11-06T13:01:53.372Z,1.40
2022-11-06T13:04:34.416Z,1.67
2022-11-06T13:07:34.577Z,1.17
2022-11-06T13:10:26.683Z,1.35
2022-11-06T13:13:19.354Z,1.23
2022-11-06T13:16:17.320Z,1.40
2022-11-06T13:18:53.396Z,1.20
2022-11-06T13:21:52.297Z,0.98
2022-11-06T13:24:41.364Z,1.38
2022-11-06T13:27:32.759Z,1.25
2022-11-06T13:30:13.849Z,1.45
2022-11-06T13:32:48.444Z,1.10
2022-11-06T13:35:21.484Z,1.33
2022-11-06T13:37:51.318Z,1.33
2022-11-06T13:41:03.944Z,1.60
2022-11-06T13:43:46.663Z,1.30
2022-11-06T13:46:36.447Z,1.35
2022-11-06T13:49:30.802Z,1.13
2022-11-06T13:52:05.578Z,1.02
2022-11-06T13:55:10.833Z,1.05
2022-11-06T13:58:11.429Z,1.50
2022-11-06T14:01:02.992Z,1.30
2022-11-06T14:04:02.986Z,1.33
2022-11-06T14:06:32.922Z,2.30
2022-11-06T14:09:15.651Z,1.15
2022-11-06T14:11:44.956Z,1.60
2022-11-06T14:14:26.042Z,1.58
2022-11-06T14:17:17.130Z,1.30
2022-11-06T14:19:50.893Z,1.30
2022-11-06T14:22:28.687Z,1.20
2022-11-06T14:25:01.271Z,2.10
2022-11-06T14:27:29.117Z,1.30
2022-11-06T14:30:18.360Z,1.17
2022-11-06T14:32:48.273Z,0.90
2022-11-06T14:35:33.096Z,1.25
2022-11-06T14:38:31.523Z,0.80
2022-11-06T14:40:58.927Z,1.17
2022-11-06T14:43:33.873Z,1.20
2022-11-06T14:46:19.664Z,1.10
2022-11-06T14:48:52.222Z,0.82
2022-11-06T14:51:27.148Z,1.35
2022-11-06T14:54:01.528Z,1.52
2022-11-06T14:59:10.597Z,1.02
2022-11-06T15:01:37.845Z,1.20
2022-11-06T15:04:18.853Z,1.10
2022-11-06T15:06:50.542Z,0.82
2022-11-06T15:09:23.374Z,1.20
2022-11-06T15:11:55.967Z,1.15
2022-11-06T15:14:22.760Z,1.80
2022-11-06T15:16:55.297Z,1.55
2022-11-06T15:19:27.494Z,1.10
2022-11-06T15:22:15.920Z,0.98
2022-11-06T15:24:58.378Z,1.48
2022-11-06T15:27:31.117Z,0.90
2022-11-06T15:30:02.520Z,1.30
2022-11-06T15:32:38.025Z,1.13
2022-11-06T15:35:19.130Z,0.90
2022-11-06T15:37:57.129Z,1.10
2022-11-06T15:40:37.532Z,1.13
2022-11-06T15:43:34.397Z,1.20
2022-11-06T15:46:15.049Z,1.13
2022-11-06T15:48:42.285Z,1.75
2022-11-06T15:51:26.894Z,1.52
2022-11-06T15:53:57.069Z,1.17
2022-11-06T15:56:30.723Z,0.98
2022-11-06T15:59:14.569Z,0.90
2022-11-06T16:01:42.352Z,1.00
2022-11-06T16:04:18.722Z,1.10
2022-11-06T16:06:47.563Z,1.60
2022-11-06T16:09:22.773Z,1.48
2022-11-06T16:11:52.185Z,1.52
2022-11-06T16:14:20.147Z,1.67
2022-11-06T16:16:56.053Z,1.73
2022-11-06T16:19:36.195Z,1.40
2022-11-06T16:22:14.423Z,1.85
2022-11-06T16:24:51.245Z,1.77
2022-11-06T16:27:18.519Z,1.48
2022-11-06T16:29:56.382Z,1.63
2022-11-06T16:32:27.501Z,1.80
2022-11-06T16:34:55.306Z,1.70
2022-11-06T16:37:29.482Z,1.52
2022-11-06T16:39:59.472Z,1.40
2022-11-06T16:42:29.455Z,1.75
2022-11-06T16:45:08.098Z,1.60
2022-11-06T16:47:35.888Z,1.73
2022-11-06T16:50:05.860Z,1.52
2022-11-06T16:52:34.749Z,1.80
2022-11-06T16:55:23.370Z,1.63
2022-11-06T16:57:58.019Z,1.40
2022-11-06T17:00:31.166Z,1.60
2022-11-06T17:03:19.205Z,2.05
2022-11-06T17:05:58.707Z,1.52
2022-11-06T17:08:38.258Z,1.90
2022-11-06T17:11:21.698Z,1.75
2022-11-06T17:13:50.557Z,1.70
2022-11-06T17:16:45.441Z,1.80
2022-11-06T17:19:12.392Z,1.75
2022-11-06T17:21:39.353Z,1.98
2022-11-06T17:24:24.382Z,1.52
2022-11-06T17:26:54.173Z,1.52
2022-11-06T17:29:22.457Z,2.13
2022-11-06T17:31:52.556Z,2.10
2022-11-06T17:34:19.514Z,2.22
2022-11-06T17:36:48.680Z,1.55
2022-11-06T17:39:16.134Z,2.55
2022-11-06T17:41:55.274Z,1.30
2022-11-06T17:44:28.531Z,1.63
2022-11-06T17:46:59.301Z,2.00
2022-11-06T17:49:29.516Z,1.45
2022-11-06T17:52:19.105Z,1.40
2022-11-06T17:54:46.183Z,1.40
2022-11-06T17:57:17.476Z,1.42
2022-11-06T18:00:08.602Z,2.03
2022-11-06T18:03:00.567Z,1.63
2022-11-06T18:05:33.590Z,1.67
2022-11-06T18:08:03.241Z,1.63
2022-11-06T18:10:30.916Z,1.42
2022-11-06T18:13:13.691Z,1.77
2022-11-06T18:15:42.066Z,1.58
2022-11-06T18:18:10.706Z,1.50
2022-11-06T18:20:53.838Z,1.70
2022-11-06T18:23:21.156Z,1.60
2022-11-06T18:25:58.129Z,1.58
2022-11-06T18:28:26.117Z,1.50
2022-11-06T18:30:53.530Z,1.45
2022-11-06T18:33:23.695Z,1.42
2022-11-06T18:35:52.154Z,1.67
2022-11-06T18:38:19.207Z,1.33
2022-11-06T18:40:51.653Z,1.70
2022-11-06T18:43:18.921Z,1.65
2022-11-06T18:45:46.210Z,1.85
2022-11-06T18:48:15.923Z,1.73
2022-11-06T18:50:46.785Z,1.25
2022-11-06T18:53:15.116Z,1.77
2022-11-06T18:55:46.274Z,1.88
2022-11-06T18:58:13.525Z,1.95
2022-11-06T19:00:40.653Z,1.90
2022-11-06T19:03:07.494Z,1.90
2022-11-06T19:05:34.494Z,2.00
2022-11-06T19:08:02.732Z,1.40
2022-11-06T19:10:31.244Z,2.30
2022-11-06T19:12:59.586Z,1.88
2022-11-06T19:15:26.595Z,2.20
2022-11-06T19:17:54.724Z,2.00
2022-11-06T19:20:22.235Z,1.42
2022-11-06T19:22:53.456Z,1.58
2022-11-06T19:25:21.396Z,1.63
2022-11-06T19:27:48.408Z,1.60
2022-11-06T19:30:16.203Z,1.80
2022-11-06T19:32:42.998Z,1.85
2022-11-06T19:35:09.971Z,1.98
2022-11-06T19:37:38.289Z,2.20
2022-11-06T19:40:06.565Z,2.80
2022-11-06T19:42:33.810Z,2.58
2022-11-06T19:45:01.400Z,2.17
2022-11-06T19:47:28.238Z,2.25
2022-11-06T19:49:55.081Z,2.47
2022-11-06T19:52:42.973Z,2.17
2022-11-06T19:55:24.965Z,2.25
2022-11-06T19:57:54.232Z,2.22
2022-11-06T20:00:21.131Z,1.80
2022-11-06T20:02:51.190Z,1.63
2022-11-06T20:05:18.364Z,1.85
2022-11-06T20:07:45.322Z,1.63
2022-11-06T20:10:12.112Z,1.58
2022-11-06T20:12:38.893Z,1.80
2022-11-06T20:15:06.300Z,2.13
2022-11-06T20:17:33.087Z,2.28
2022-11-06T20:19:59.863Z,1.77
2022-11-06T20:22:26.827Z,1.70
2022-11-06T20:24:53.629Z,1.90
2022-11-06T20:27:20.425Z,2.00
2022-11-06T20:29:47.198Z,1.77
2022-11-06T20:32:18.879Z,2.10
2022-11-06T20:34:46.272Z,1.80
2022-11-06T20:37:13.175Z,2.22
2022-11-06T20:39:41.509Z,2.20
2022-11-06T20:42:08.592Z,2.15
2022-11-06T20:44:35.437Z,1.83
2022-11-06T20:47:02.277Z,2.17
2022-11-06T20:49:29.068Z,2.17
2022-11-06T20:52:13.256Z,2.10
2022-11-06T20:54:46.428Z,2.08
2022-11-06T20:57:15.205Z,2.30
2022-11-06T20:59:42.383Z,2.28
2022-11-06T21:02:11.153Z,2.47
2022-11-06T21:04:38.413Z,2.42
2022-11-06T21:07:05.552Z,2.42
2022-11-06T21:09:32.384Z,2.42
2022-11-06T21:11:59.271Z,2.88
2022-11-06T21:14:26.182Z,2.38
2022-11-06T21:16:53.967Z,2.45
2022-11-06T21:19:20.858Z,2.72
2022-11-06T21:21:47.708Z,2.67
2022-11-06T21:24:14.528Z,3.03
2022-11-06T21:26:41.460Z,2.85
2022-11-06T21:29:10.786Z,3.05
2022-11-06T21:31:43.956Z,2.50
2022-11-06T21:34:15.620Z,3.15
2022-11-06T21:36:42.429Z,2.78
2022-11-06T21:39:15.170Z,2.63
2022-11-06T21:41:42.599Z,2.65
2022-11-06T21:44:16.095Z,3.22
2022-11-06T21:46:45.578Z,2.97
2022-11-06T21:49:13.750Z,3.08
2022-11-06T21:51:40.819Z,3.28
2022-11-06T21:54:28.109Z,2.90
2022-11-06T21:56:54.908Z,2.92
2022-11-06T21:59:29.189Z,2.92
2022-11-06T22:04:23.355Z,3.05
2022-11-06T22:06:52.216Z,3.00
2022-11-06T22:09:24.483Z,3.53
2022-11-06T22:11:52.063Z,3.00
2022-11-06T22:14:19.115Z,3.00
2022-11-06T22:16:47.474Z,3.20
2022-11-06T22:19:16.233Z,3.13
2022-11-06T22:21:43.507Z,3.15
2022-11-06T22:24:12.935Z,3.17
2022-11-06T22:26:40.583Z,3.10
2022-11-06T22:29:11.617Z,3.28
2022-11-06T22:31:38.438Z,4.55
2022-11-06T22:34:05.507Z,3.42
2022-11-06T22:36:32.397Z,3.05
2022-11-06T22:39:00.629Z,3.33
2022-11-06T22:41:27.513Z,2.88
2022-11-06T22:43:58.825Z,3.03
2022-11-06T22:46:26.779Z,3.30
2022-11-06T22:48:54.049Z,3.33
2022-11-06T22:51:24.630Z,2.80
2022-11-06T22:53:52.619Z,2.95
2022-11-06T22:56:22.560Z,2.83
2022-11-06T22:59:02.030Z,3.00
2022-11-06T23:01:33.174Z,2.75
2022-11-06T23:04:06.052Z,2.67
2022-11-06T23:06:33.284Z,3.20
2022-11-06T23:09:00.485Z,2.72
2022-11-06T23:11:30.257Z,3.20
2022-11-06T23:14:05.954Z,2.63
2022-11-06T23:16:52.768Z,3.50
2022-11-06T23:19:21.057Z,3.33
2022-11-06T23:21:47.943Z,2.55
2022-11-06T23:24:15.221Z,3.05
2022-11-06T23:26:45.504Z,2.80
2022-11-06T23:29:12.507Z,2.80
2022-11-06T23:31:40.985Z,2.80
2022-11-06T23:34:07.799Z,3.33
2022-11-06T23:36:35.440Z,3.08
2022-11-06T23:39:02.231Z,3.00
2022-11-06T23:41:45.383Z,4.00
2022-11-06T23:44:32.256Z,3.63
2022-11-06T23:46:59.641Z,3.38
2022-11-06T23:49:26.454Z,3.47
2022-11-06T23:51:53.349Z,3.35
2022-11-06T23:54:20.395Z,3.20
2022-11-06T23:56:47.184Z,3.08
2022-11-06T23:59:14.013Z,3.22
